Time;durP1;ratioP1;P1;durP2;ratioP2;P2;SDS_P1;SDS_P2;PMS_P1;PMS_P2;Temp;Humidity;BMP_temperature;BMP_pressure;BME280_temperature;BME280_humidity;BME280_pressure;Samples;Min_cycle;Max_cycle;Signal;HPM_P1;HPM_P2
2023/02/10 00:01:17;;;;;;;44.85;21.30;;;;;;;-3.93;79.41;102669.69;5014763;28;20057;-89
2023/02/10 00:03:43;;;;;;;42.08;20.75;;;;;;;-4.01;79.73;102672.22;5031400;28;20495;-89
2023/02/10 00:06:11;;;;;;;41.45;20.50;;;;;;;-4.06;80.13;102678.16;5013383;28;20037;-89
2023/02/10 00:08:37;;;;;;;40.83;20.80;;;;;;;-4.08;79.83;102675.63;5005680;28;20045;-88
2023/02/10 00:11:05;;;;;;;36.67;20.48;;;;;;;-4.11;80.16;102669.66;5032127;28;20472;-90
2023/02/10 00:13:32;;;;;;;43.45;20.95;;;;;;;-4.10;80.69;102676.44;5031390;28;20033;-90
2023/02/10 00:15:58;;;;;;;37.88;20.80;;;;;;;-4.10;80.61;102671.38;5014840;28;20389;-91
2023/02/10 00:18:25;;;;;;;42.25;20.00;;;;;;;-4.11;80.13;102677.31;5031625;28;20044;-89
2023/02/10 00:20:50;;;;;;;44.10;20.48;;;;;;;-4.11;80.31;102674.75;5014244;28;20026;-90
2023/02/10 00:23:16;;;;;;;40.00;21.00;;;;;;;-4.15;80.31;102675.59;5013980;28;20080;-89
2023/02/10 00:25:41;;;;;;;35.47;20.98;;;;;;;-4.17;80.54;102674.75;5013560;28;20041;-90
2023/02/10 00:28:06;;;;;;;44.80;21.55;;;;;;;-4.15;80.50;102671.34;5014139;28;20060;-89
2023/02/10 00:30:32;;;;;;;42.65;20.20;;;;;;;-4.14;80.92;102680.69;5013970;28;20033;-90
2023/02/10 00:32:58;;;;;;;44.35;20.45;;;;;;;-4.21;nan;102683.22;5032230;28;20030;-90
2023/02/10 00:35:23;;;;;;;41.85;20.77;;;;;;;-4.22;82.69;102681.53;5011400;28;20025;-89
2023/02/10 00:37:49;;;;;;;39.30;19.90;;;;;;;-4.20;81.40;102682.38;5031689;28;20033;-90
2023/02/10 00:40:15;;;;;;;37.22;19.48;;;;;;;-4.26;80.98;102682.38;5013921;28;20068;-89
2023/02/10 00:42:41;;;;;;;40.25;19.05;;;;;;;-4.29;80.95;102678.13;5013528;28;20108;-90
2023/02/10 00:45:06;;;;;;;38.33;19.52;;;;;;;-4.26;81.53;102680.69;5031955;28;20108;-89
2023/02/10 00:47:32;;;;;;;36.13;20.13;;;;;;;-4.26;81.49;102679.84;5013304;28;20108;-90
2023/02/10 00:49:57;;;;;;;34.20;18.17;;;;;;;-4.28;81.17;102676.44;5014118;28;20481;-89
2023/02/10 00:52:23;;;;;;;37.58;19.02;;;;;;;-4.29;81.30;102669.66;5013428;28;20029;-90
2023/02/10 00:54:49;;;;;;;37.08;18.23;;;;;;;-4.28;82.10;102676.44;5013737;28;20033;-89
2023/02/10 00:57:14;;;;;;;39.83;18.23;;;;;;;-4.33;81.59;102678.13;5010356;28;20155;-89
2023/02/10 00:59:40;;;;;;;36.78;17.83;;;;;;;-4.39;82.48;102678.94;5031406;28;20053;-89
2023/02/10 01:02:06;;;;;;;33.25;15.93;;;;;;;-4.33;82.38;102678.13;5023535;28;20128;-89
2023/02/10 01:04:32;;;;;;;31.80;16.35;;;;;;;-4.35;82.06;102675.56;5031040;28;20124;-89
2023/02/10 01:06:57;;;;;;;30.80;16.90;;;;;;;-4.32;81.92;102673.03;5031715;28;20037;-90
2023/02/10 01:09:22;;;;;;;33.88;16.55;;;;;;;-4.37;81.24;102665.38;5013295;28;20440;-89
2023/02/10 01:11:48;;;;;;;30.88;15.48;;;;;;;-4.38;81.64;102661.16;5031803;28;20484;-89
2023/02/10 01:14:14;;;;;;;26.40;15.43;;;;;;;-4.36;82.29;102650.97;5030976;28;20025;-89
2023/02/10 01:16:39;;;;;;;32.17;17.17;;;;;;;-4.43;83.22;102645.00;5025192;28;20037;-89
2023/02/10 01:19:05;;;;;;;32.28;15.55;;;;;;;-4.44;82.74;102643.31;5031729;28;20037;-89
2023/02/10 01:21:31;;;;;;;31.30;15.80;;;;;;;-4.45;82.83;102636.53;5013021;28;20034;-89
2023/02/10 01:23:57;;;;;;;30.67;15.95;;;;;;;-4.44;82.15;102640.78;5012919;28;20043;-90
2023/02/10 01:26:22;;;;;;;29.35;15.68;;;;;;;-4.44;82.30;102635.69;5011149;28;20144;-90
2023/02/10 01:28:48;;;;;;;27.75;13.82;;;;;;;-4.44;82.98;102632.28;5030721;28;20037;-89
2023/02/10 01:31:16;;;;;;;29.08;15.45;;;;;;;-4.48;82.58;102626.34;5012635;28;20040;-90
2023/02/10 01:33:42;;;;;;;35.35;16.23;;;;;;;-4.49;83.21;102624.63;5029980;28;20507;-90
2023/02/10 01:36:10;;;;;;;28.30;15.32;;;;;;;-4.43;82.15;102606.84;5010111;28;20056;-89
2023/02/10 01:38:36;;;;;;;35.40;16.63;;;;;;;-4.48;82.59;102611.06;5012322;28;20047;-89
2023/02/10 01:41:02;;;;;;;30.42;15.23;;;;;;;-4.53;83.14;102610.22;5030469;28;20087;-89
2023/02/10 01:43:27;;;;;;;28.20;14.55;;;;;;;-4.54;83.28;102608.50;5012260;28;20021;-90
2023/02/10 01:45:53;;;;;;;36.10;17.98;;;;;;;-4.49;83.61;102611.06;5012761;28;20076;-90
2023/02/10 01:48:19;;;;;;;37.97;17.92;;;;;;;-4.41;83.55;102611.94;5026990;28;20033;-89
2023/02/10 01:50:54;;;;;;;29.38;16.58;;;;;;;-4.37;82.70;102611.94;5012529;28;20128;-89
2023/02/10 01:53:21;;;;;;;38.10;18.45;;;;;;;-4.37;82.43;102606.00;5008897;28;20033;-90
2023/02/10 01:55:51;;;;;;;35.58;16.73;;;;;;;-4.34;82.36;102611.09;5025034;28;20492;-90
2023/02/10 01:58:21;;;;;;;38.03;18.45;;;;;;;-4.41;82.21;102607.69;5011979;28;20043;-89
2023/02/10 02:00:46;;;;;;;36.63;18.48;;;;;;;-4.47;83.09;102604.28;5029580;28;20091;-89
2023/02/10 02:03:13;;;;;;;37.25;18.38;;;;;;;-4.55;83.27;102599.19;5012238;28;20496;-89
2023/02/10 02:05:40;;;;;;;39.47;17.25;;;;;;;-4.54;83.60;102611.06;5011694;28;20061;-89
2023/02/10 02:08:20;;;;;;;28.02;15.48;;;;;;;-4.54;83.86;102607.66;5012217;28;20045;-90
2023/02/10 02:10:52;;;;;;;29.00;15.25;;;;;;;-4.58;83.15;102604.25;5012261;28;20034;-89
2023/02/10 02:13:28;;;;;;;34.67;16.70;;;;;;;-4.64;83.31;102608.47;5030055;28;20083;-90
2023/02/10 02:16:10;;;;;;;33.85;17.50;;;;;;;-4.61;84.14;102614.44;5024511;28;20026;-90
2023/02/10 02:18:57;;;;;;;30.63;17.13;;;;;;;-4.65;83.17;102604.22;5011844;28;20040;-89
2023/02/10 02:21:38;;;;;;;32.35;16.88;;;;;;;-4.71;83.17;102610.16;5011597;28;20034;-89
2023/02/10 02:24:30;;;;;;;35.25;17.27;;;;;;;-4.75;83.75;102601.69;5024290;28;20064;-89
2023/02/10 02:27:14;;;;;;;31.60;16.70;;;;;;;-4.75;84.90;102595.75;5029908;28;20079;-88
2023/02/10 02:29:49;;;;;;;30.63;16.52;;;;;;;-4.76;84.36;102594.06;5029327;28;20116;-88
2023/02/10 02:32:23;;;;;;;34.80;16.63;;;;;;;-4.77;84.38;102595.75;5011906;28;20039;-89
2023/02/10 02:35:11;;;;;;;30.85;15.93;;;;;;;-4.77;84.77;102593.22;5026068;28;20041;-89
2023/02/10 02:37:41;;;;;;;31.10;15.55;;;;;;;-4.77;84.75;102594.91;5011258;28;20547;-89
2023/02/10 02:40:07;;;;;;;31.75;16.30;;;;;;;-4.81;84.50;102588.09;5025004;28;20053;-89
2023/02/10 02:42:33;;;;;;;27.60;14.95;;;;;;;-4.84;85.01;102593.19;5029991;28;20060;-89
2023/02/10 02:45:16;;;;;;;32.00;16.67;;;;;;;-4.89;86.83;102603.34;5011797;28;20038;-89
2023/02/10 02:47:50;;;;;;;32.17;15.77;;;;;;;-4.92;86.60;102597.38;5029686;28;20033;-89
2023/02/10 02:50:34;;;;;;;31.98;16.00;;;;;;;-4.87;87.00;102600.81;5025215;28;20105;-88
2023/02/10 02:53:22;;;;;;;25.70;13.93;;;;;;;-4.90;85.53;102595.69;5008836;28;20033;-88
2023/02/10 02:56:01;;;;;;;31.23;14.57;;;;;;;-4.89;85.42;102585.53;5007692;28;20021;-88
2023/02/10 02:58:36;;;;;;;28.52;14.48;;;;;;;-4.88;84.82;102594.00;5010914;28;20025;-89
2023/02/10 03:01:16;;;;;;;26.63;13.43;;;;;;;-4.90;84.90;102588.06;5029407;28;20120;-89
2023/02/10 03:03:42;;;;;;;28.10;15.52;;;;;;;-4.89;84.87;102584.69;5011266;28;20582;-88
2023/02/10 03:06:07;;;;;;;29.25;14.60;;;;;;;-4.91;84.98;102584.69;5010835;28;20053;-88
2023/02/10 03:08:36;;;;;;;28.45;13.50;;;;;;;-4.95;85.99;102589.75;5029135;28;20025;-89
2023/02/10 03:11:02;;;;;;;26.83;13.65;;;;;;;-4.97;85.95;102587.19;5029558;28;20125;-90
2023/02/10 03:13:27;;;;;;;27.25;13.50;;;;;;;-4.97;85.74;102583.81;5010544;28;20132;-88
2023/02/10 03:15:52;;;;;;;31.75;15.07;;;;;;;-5.01;85.56;102585.47;5029100;28;20026;-88
2023/02/10 03:18:18;;;;;;;28.80;14.60;;;;;;;-5.02;85.80;102582.09;5029251;28;20052;-89
2023/02/10 03:20:43;;;;;;;26.83;13.68;;;;;;;-5.03;85.21;102593.09;5011508;28;20037;-89
2023/02/10 03:23:10;;;;;;;24.08;12.43;;;;;;;-5.03;85.77;102592.25;5029717;28;20037;-89
2023/02/10 03:25:35;;;;;;;27.67;12.40;;;;;;;-5.04;85.15;102590.56;5010889;28;20156;-89
2023/02/10 03:28:01;;;;;;;24.63;12.20;;;;;;;-5.04;84.97;102591.41;5029545;28;20132;-88
2023/02/10 03:30:27;;;;;;;23.73;12.57;;;;;;;-5.05;85.13;102586.31;5028460;28;20025;-88
2023/02/10 03:32:53;;;;;;;26.40;13.88;;;;;;;-5.06;85.27;102592.25;5011620;28;20095;-89
2023/02/10 03:35:19;;;;;;;28.52;12.82;;;;;;;-5.08;85.61;102596.47;5011523;28;20114;-89
2023/02/10 03:37:45;;;;;;;27.13;13.27;;;;;;;-5.10;85.69;102588.84;5027015;28;20034;-88
2023/02/10 03:40:11;;;;;;;26.70;13.02;;;;;;;-5.06;86.20;102585.47;5011171;28;20025;-89
2023/02/10 03:42:36;;;;;;;26.65;12.50;;;;;;;-5.07;85.10;102593.09;5031919;28;20033;-88
2023/02/10 03:45:02;;;;;;;23.08;10.95;;;;;;;-5.05;85.81;102593.94;5032531;28;20095;-89
2023/02/10 03:47:27;;;;;;;24.48;12.15;;;;;;;-5.05;85.44;102591.41;5032036;28;20060;-89
2023/02/10 03:49:53;;;;;;;25.95;12.70;;;;;;;-5.05;85.13;102602.41;5014203;28;20025;-89
2023/02/10 03:52:18;;;;;;;21.25;11.60;;;;;;;-5.09;86.15;102597.31;5014577;28;20033;-89
2023/02/10 03:54:43;;;;;;;21.00;10.55;;;;;;;-5.13;85.96;102601.53;5013937;28;20029;-89
2023/02/10 03:57:11;;;;;;;26.08;13.05;;;;;;;-5.12;85.57;102612.53;5012009;28;20512;-89
2023/02/10 03:59:36;;;;;;;23.23;12.43;;;;;;;-5.17;85.89;102615.06;5014068;28;20030;-88
2023/02/10 04:02:02;;;;;;;24.02;12.73;;;;;;;-5.22;86.42;102615.91;5014279;28;20044;-89
2023/02/10 04:04:28;;;;;;;24.77;11.68;;;;;;;-5.24;86.32;102627.75;5031190;28;20042;-89
2023/02/10 04:06:53;;;;;;;26.38;11.50;;;;;;;-5.20;86.96;102629.47;5014307;28;20041;-89
2023/02/10 04:09:18;;;;;;;27.08;12.13;;;;;;;-5.14;86.71;102626.94;5031739;28;20048;-89
2023/02/10 04:11:44;;;;;;;20.38;11.38;;;;;;;-5.12;86.26;102621.03;5013908;28;20044;-89
2023/02/10 04:14:09;;;;;;;21.65;11.73;;;;;;;-5.14;86.10;102630.34;5031793;28;20450;-89
2023/02/10 04:16:35;;;;;;;25.17;12.02;;;;;;;-5.12;86.60;102626.09;5013792;28;20034;-89
2023/02/10 04:19:00;;;;;;;21.92;11.70;;;;;;;-5.15;86.48;102621.00;5031170;28;20087;-89
2023/02/10 04:21:26;;;;;;;22.90;11.55;;;;;;;-5.14;86.57;102625.25;5031468;28;20029;-89
2023/02/10 04:23:52;;;;;;;23.05;11.32;;;;;;;-5.14;85.90;102625.25;5014249;28;20070;-89
2023/02/10 04:26:17;;;;;;;21.48;12.20;;;;;;;-5.16;86.10;102621.84;5013902;28;20483;-89
2023/02/10 04:28:43;;;;;;;19.58;11.60;;;;;;;-5.19;86.31;102621.84;5031537;28;20033;-89
2023/02/10 04:31:09;;;;;;;22.02;10.82;;;;;;;-5.21;86.66;102615.06;5013740;28;20420;-89
2023/02/10 04:33:35;;;;;;;19.02;10.10;;;;;;;-5.22;85.55;102631.16;5013487;28;20048;-89
2023/02/10 04:36:02;;;;;;;21.35;11.13;;;;;;;-5.31;86.51;102624.34;5031576;28;20029;-89
2023/02/10 04:38:28;;;;;;;21.15;11.25;;;;;;;-5.33;86.74;102613.31;5012683;28;20500;-89
2023/02/10 04:40:53;;;;;;;24.08;12.30;;;;;;;-5.28;87.17;102623.50;5025346;28;20130;-89
2023/02/10 04:43:19;;;;;;;21.98;11.57;;;;;;;-5.28;86.63;102614.19;5031254;28;20128;-88
2023/02/10 04:45:44;;;;;;;24.98;12.93;;;;;;;-5.26;86.79;102611.66;5013368;28;20079;-88
2023/02/10 04:48:10;;;;;;;23.63;13.48;;;;;;;-5.28;87.08;102618.41;5013855;28;20087;-89
2023/02/10 04:50:38;;;;;;;25.02;12.68;;;;;;;-5.26;86.72;102624.34;5012453;28;20033;-88
2023/02/10 04:53:04;;;;;;;24.13;11.43;;;;;;;-5.21;86.71;102615.06;5013762;28;20158;-88
2023/02/10 04:55:30;;;;;;;21.33;12.05;;;;;;;-5.24;86.04;102615.91;5030802;28;20123;-89
2023/02/10 04:57:55;;;;;;;23.13;12.20;;;;;;;-5.26;87.27;102622.66;5031483;28;20527;-88
2023/02/10 05:00:21;;;;;;;24.02;12.32;;;;;;;-5.23;87.46;102629.47;5013324;28;20489;-89
2023/02/10 05:02:46;;;;;;;21.55;11.68;;;;;;;-5.13;87.49;102626.94;5013077;28;20040;-89
2023/02/10 05:05:12;;;;;;;24.23;10.75;;;;;;;-5.10;86.18;102628.66;5012822;28;20045;-89
2023/02/10 05:07:37;;;;;;;27.77;12.65;;;;;;;-5.19;85.73;102636.22;5030690;28;20041;-89
2023/02/10 05:10:03;;;;;;;23.30;12.00;;;;;;;-5.23;86.45;102630.31;5013295;28;20523;-88
2023/02/10 05:12:29;;;;;;;27.45;13.20;;;;;;;-5.26;86.67;102626.91;5012620;28;20056;-90
2023/02/10 05:14:54;;;;;;;21.75;11.75;;;;;;;-5.31;86.77;102628.56;5031183;28;20117;-88
2023/02/10 05:17:20;;;;;;;22.42;10.88;;;;;;;-5.39;87.37;102634.44;5030772;28;20033;-89
2023/02/10 05:19:45;;;;;;;20.75;11.48;;;;;;;-5.43;87.29;102644.56;5012133;28;20029;-89
2023/02/10 05:22:10;;;;;;;25.30;11.35;;;;;;;-5.44;87.34;102646.28;5012980;28;20033;-89
2023/02/10 05:24:36;;;;;;;26.25;11.95;;;;;;;-5.43;87.60;102644.56;5012283;28;20413;-89
2023/02/10 05:27:01;;;;;;;25.60;12.55;;;;;;;-5.44;88.17;102643.72;5013395;28;20079;-89
2023/02/10 05:29:27;;;;;;;24.90;12.23;;;;;;;-5.48;87.47;102628.47;5012388;28;20041;-89
2023/02/10 05:31:52;;;;;;;25.70;11.98;;;;;;;-5.50;88.25;102640.28;5012717;28;20132;-89
2023/02/10 05:34:18;;;;;;;20.63;10.13;;;;;;;-5.50;88.37;102638.59;5027962;28;20025;-89
2023/02/10 05:36:43;;;;;;;24.08;11.95;;;;;;;-5.46;88.84;102647.09;5028591;28;20086;-89
2023/02/10 05:39:25;;;;;;;21.77;9.73;;;;;;;-5.33;88.17;102648.88;5012625;28;20425;-88
2023/02/10 05:41:56;;;;;;;23.45;10.43;;;;;;;-5.39;88.61;102638.69;5008695;28;20021;-89
2023/02/10 05:44:23;;;;;;;23.02;11.18;;;;;;;-5.37;87.72;102639.53;5012375;28;20452;-89
2023/02/10 05:46:48;;;;;;;19.55;10.52;;;;;;;-5.41;88.04;102635.28;5012086;28;20095;-89
2023/02/10 05:49:14;;;;;;;24.05;12.88;;;;;;;-5.39;88.60;102644.59;5030321;28;20057;-88
2023/02/10 05:51:41;;;;;;;25.65;12.23;;;;;;;-5.35;88.69;102648.03;5030114;28;20041;-89
2023/02/10 05:54:06;;;;;;;19.17;10.93;;;;;;;-5.35;88.01;102646.34;5012221;28;20033;-89
2023/02/10 05:56:32;;;;;;;28.48;12.43;;;;;;;-5.43;88.39;102654.75;5029984;28;20044;-89
2023/02/10 05:58:57;;;;;;;21.67;11.05;;;;;;;-5.43;87.84;102654.75;5012428;28;20154;-89
2023/02/10 06:01:23;;;;;;;30.63;12.93;;;;;;;-5.42;87.89;102664.06;5011727;28;20057;-89
2023/02/10 06:03:49;;;;;;;32.58;12.30;;;;;;;-5.46;88.10;102655.56;5011888;28;20087;-89
2023/02/10 06:06:14;;;;;;;25.83;12.73;;;;;;;-5.33;88.26;102648.03;5012154;28;20077;-89
2023/02/10 06:08:40;;;;;;;26.25;13.15;;;;;;;-5.25;87.69;102654.88;5030101;28;20037;-88
2023/02/10 06:11:06;;;;;;;23.17;12.60;;;;;;;-5.17;87.03;102654.88;5012293;28;20033;-89
2023/02/10 06:13:31;;;;;;;27.23;13.57;;;;;;;-5.17;87.25;102655.72;5012213;28;20127;-88
2023/02/10 06:15:57;;;;;;;32.72;15.93;;;;;;;-5.18;86.58;102658.25;5007656;28;20022;-88
2023/02/10 06:18:22;;;;;;;40.38;18.42;;;;;;;-5.23;86.78;102665.03;5029805;28;20076;-88
2023/02/10 06:20:50;;;;;;;36.20;17.23;;;;;;;-5.25;87.42;102662.50;5030261;28;20029;-89
2023/02/10 06:23:16;;;;;;;37.95;15.88;;;;;;;-5.27;87.51;102671.78;5030141;28;20144;-89
2023/02/10 06:25:42;;;;;;;31.42;15.32;;;;;;;-5.26;87.69;102676.03;5029657;28;20473;-89
2023/02/10 06:28:07;;;;;;;35.28;14.82;;;;;;;-5.18;87.93;102676.06;5030341;28;20429;-89
2023/02/10 06:30:32;;;;;;;30.38;12.60;;;;;;;-5.15;87.62;102678.63;5006910;28;20037;-89
2023/02/10 06:32:58;;;;;;;25.40;12.65;;;;;;;-5.07;87.21;102682.91;5030184;28;20033;-89
2023/02/10 06:35:23;;;;;;;30.98;13.68;;;;;;;-4.98;86.29;102682.09;5010600;28;20088;-88
2023/02/10 06:37:49;;;;;;;31.65;12.50;;;;;;;-4.90;86.42;102684.69;5029759;28;20499;-88
2023/02/10 06:40:15;;;;;;;24.98;12.43;;;;;;;-4.88;85.96;102678.78;5029748;28;20484;-89
2023/02/10 06:42:40;;;;;;;22.45;12.55;;;;;;;-4.84;85.44;102692.34;5011754;28;20034;-88
2023/02/10 06:45:08;;;;;;;34.55;14.60;;;;;;;-4.87;85.15;102697.44;5012183;28;20443;-87
2023/02/10 06:47:34;;;;;;;22.00;11.80;;;;;;;-4.90;85.37;102699.94;5011725;28;20336;-88
2023/02/10 06:49:59;;;;;;;26.10;14.07;;;;;;;-4.89;85.48;102702.50;5012234;28;20030;-88
2023/02/10 06:52:26;;;;;;;20.80;11.20;;;;;;;-4.89;85.86;102706.75;5011672;28;20041;-88
2023/02/10 06:54:52;;;;;;;23.55;12.73;;;;;;;-4.78;85.90;102694.94;5011236;28;20033;-88
2023/02/10 06:57:18;;;;;;;26.70;13.45;;;;;;;-4.60;85.58;102695.00;5010868;28;20163;-88
2023/02/10 06:59:43;;;;;;;26.75;13.80;;;;;;;-4.55;84.89;102706.03;5013033;28;20429;-88
2023/02/10 07:02:11;;;;;;;29.63;14.10;;;;;;;-4.59;85.37;102708.56;5049417;28;20037;-88
2023/02/10 07:04:37;;;;;;;29.80;13.80;;;;;;;-4.50;84.97;102699.28;5009935;28;20046;-88
2023/02/10 07:07:03;;;;;;;26.27;13.18;;;;;;;-4.39;84.95;102705.25;5009641;28;20846;-88
2023/02/10 07:09:28;;;;;;;29.77;14.23;;;;;;;-4.30;85.08;102713.75;5009232;28;20472;-88
2023/02/10 07:11:54;;;;;;;29.85;14.20;;;;;;;-4.22;85.29;102706.97;5008540;28;20034;-88
2023/02/10 07:14:20;;;;;;;26.77;13.60;;;;;;;-4.12;85.35;102711.25;5009190;28;20025;-89
2023/02/10 07:16:46;;;;;;;37.05;15.23;;;;;;;-4.04;85.58;102712.97;5009493;28;20034;-88
2023/02/10 07:19:11;;;;;;;32.25;13.65;;;;;;;-3.92;85.01;102717.25;5011615;28;20022;-89
2023/02/10 07:21:38;;;;;;;24.67;13.15;;;;;;;-3.83;85.00;102719.81;5009394;28;20099;-88
2023/02/10 07:24:04;;;;;;;28.92;13.18;;;;;;;-3.69;84.97;102723.19;5011184;28;20065;-88
2023/02/10 07:26:29;;;;;;;29.05;15.23;;;;;;;-3.56;84.36;102729.13;5011734;28;20049;-88
2023/02/10 07:28:54;;;;;;;29.48;13.43;;;;;;;-3.29;82.80;102729.97;5011898;28;20066;-88
2023/02/10 07:31:20;;;;;;;28.70;13.00;;;;;;;-3.02;80.81;102735.88;5012029;28;20033;-89
2023/02/10 07:33:45;;;;;;;25.38;13.00;;;;;;;-2.64;77.79;102728.97;5011819;28;20021;-89
2023/02/10 07:36:11;;;;;;;26.60;13.55;;;;;;;-2.44;76.92;102734.88;5010675;28;20025;-91
2023/02/10 07:38:37;;;;;;;23.80;12.55;;;;;;;-2.33;76.24;102723.72;5006586;28;20069;-90
2023/02/10 07:41:04;;;;;;;26.90;13.73;;;;;;;-2.22;75.95;102725.38;5013161;28;20030;-91
2023/02/10 07:43:30;;;;;;;32.08;13.05;;;;;;;-2.22;76.21;102718.56;5012017;28;20496;-92
2023/02/10 07:45:56;;;;;;;23.02;13.05;;;;;;;-2.21;76.20;102727.94;5010915;28;20058;-88
2023/02/10 07:48:21;;;;;;;26.50;12.80;;;;;;;-1.99;74.56;102728.66;5010777;28;20030;-88
2023/02/10 07:50:48;;;;;;;21.70;11.85;;;;;;;-1.85;74.62;102736.22;5008024;28;20469;-89
2023/02/10 07:53:13;;;;;;;36.30;14.00;;;;;;;-1.79;73.76;102737.03;5010967;28;20045;-88
2023/02/10 07:55:39;;;;;;;22.48;13.00;;;;;;;-1.73;73.87;102742.09;5010850;28;20018;-88
2023/02/10 07:58:06;;;;;;;23.83;12.23;;;;;;;-1.42;71.59;102737.56;5007885;28;20033;-88
2023/02/10 08:00:32;;;;;;;23.10;11.63;;;;;;;-1.04;68.26;102744.94;5005007;28;20033;-89
2023/02/10 08:02:57;;;;;;;23.38;10.70;;;;;;;-0.82;67.95;102737.00;5011041;28;20615;-90
2023/02/10 08:05:23;;;;;;;20.23;11.05;;;;;;;-0.75;68.02;102733.53;5011006;28;20095;-88
2023/02/10 08:07:49;;;;;;;21.20;11.73;;;;;;;-0.68;67.80;102737.72;5007886;28;20373;-88
2023/02/10 08:10:15;;;;;;;23.88;12.07;;;;;;;-0.71;67.46;102743.72;5011905;28;21187;-87
2023/02/10 08:12:40;;;;;;;23.52;11.43;;;;;;;-0.59;67.02;102742.72;5009646;28;20117;-87
2023/02/10 08:15:07;;;;;;;19.88;10.55;;;;;;;-0.51;66.46;102748.59;5011648;28;20030;-87
2023/02/10 08:17:32;;;;;;;21.63;11.20;;;;;;;-0.23;64.65;102751.66;5007818;28;20030;-87
2023/02/10 08:19:58;;;;;;;19.75;10.75;;;;;;;-0.04;63.96;102749.72;5012499;28;20504;-88
2023/02/10 08:22:23;;;;;;;23.15;10.85;;;;;;;0.02;63.66;102747.03;5007030;28;20385;-88
2023/02/10 08:24:49;;;;;;;19.70;10.50;;;;;;;0.05;63.36;102751.25;5011317;28;20038;-87
2023/02/10 08:27:14;;;;;;;19.83;10.25;;;;;;;0.09;63.03;102758.03;5011364;28;20030;-88
2023/02/10 08:29:40;;;;;;;20.00;10.18;;;;;;;0.12;62.66;102752.88;5010573;28;20034;-88
2023/02/10 08:32:05;;;;;;;19.88;9.70;;;;;;;0.19;61.62;102757.91;5010739;28;20545;-88
2023/02/10 08:34:31;;;;;;;19.20;9.57;;;;;;;0.24;62.35;102753.56;5010813;28;20037;-88
2023/02/10 08:36:56;;;;;;;20.88;10.80;;;;;;;0.18;62.90;102756.22;5011034;28;20362;-87
2023/02/10 08:39:22;;;;;;;19.55;10.25;;;;;;;0.33;61.26;102758.53;5011011;28;20036;-88
2023/02/10 08:41:47;;;;;;;25.30;11.55;;;;;;;0.53;60.85;102757.38;5012658;28;20065;-87
2023/02/10 08:44:13;;;;;;;21.45;10.27;;;;;;;0.51;61.07;102762.53;5006074;28;20100;-88
2023/02/10 08:46:39;;;;;;;19.00;9.77;;;;;;;0.56;60.32;102765.88;5012208;28;20040;-87
2023/02/10 08:49:07;;;;;;;17.73;9.23;;;;;;;0.60;60.28;102761.53;5010769;28;20038;-88
2023/02/10 08:51:32;;;;;;;19.10;9.38;;;;;;;0.73;59.45;102763.03;5011450;28;20072;-87
2023/02/10 08:54:03;;;;;;;14.70;8.98;;;;;;;0.74;59.28;102759.59;5011820;28;20029;-88
2023/02/10 08:56:28;;;;;;;16.48;8.95;;;;;;;0.76;58.50;102757.84;5011223;28;20080;-87
2023/02/10 08:58:54;;;;;;;19.65;9.20;;;;;;;0.89;57.75;102758.50;5011885;28;20407;-87
2023/02/10 09:01:25;;;;;;;18.23;9.80;;;;;;;0.92;58.17;102751.59;5011107;28;20044;-87
2023/02/10 09:03:51;;;;;;;17.75;9.65;;;;;;;0.89;58.65;102748.22;5004167;28;20036;-87
2023/02/10 09:06:22;;;;;;;18.60;9.57;;;;;;;0.93;57.57;102750.72;5003142;28;20034;-88
2023/02/10 09:08:49;;;;;;;14.02;8.30;;;;;;;1.03;55.60;102745.38;4990874;28;20050;-88
2023/02/10 09:11:15;;;;;;;18.15;8.70;;;;;;;1.11;56.98;102739.25;4992213;28;20034;-88
2023/02/10 09:13:41;;;;;;;16.52;8.98;;;;;;;1.18;56.64;102747.69;5009329;28;24247;-87
2023/02/10 09:16:07;;;;;;;14.10;8.00;;;;;;;1.16;57.24;102746.84;4986052;28;20030;-87
2023/02/10 09:18:32;;;;;;;17.88;9.10;;;;;;;1.08;57.68;102752.13;4993167;28;20121;-88
2023/02/10 09:21:00;;;;;;;21.27;9.90;;;;;;;0.96;58.03;102755.75;4998333;28;20165;-88
2023/02/10 09:23:26;;;;;;;19.02;9.40;;;;;;;1.00;57.52;102757.41;4991744;28;20144;-87
2023/02/10 09:25:58;;;;;;;19.65;10.05;;;;;;;1.18;56.81;102752.81;4992235;28;20026;-87
2023/02/10 09:28:24;;;;;;;17.73;9.93;;;;;;;1.20;56.89;102753.63;4988155;28;20120;-87
2023/02/10 09:30:50;;;;;;;18.00;8.82;;;;;;;1.16;57.29;102752.84;4985786;28;20101;-88
2023/02/10 09:33:15;;;;;;;15.60;9.13;;;;;;;1.15;56.70;102751.16;4987605;28;20035;-87
2023/02/10 09:35:41;;;;;;;21.67;10.98;;;;;;;1.41;55.71;102749.81;4989349;28;20477;-85
2023/02/10 09:38:08;;;;;;;19.25;10.75;;;;;;;1.48;56.56;102754.78;4989315;28;20132;-85
2023/02/10 09:40:44;;;;;;;31.20;14.35;;;;;;;1.40;56.54;102758.41;4990244;28;20026;-86
2023/02/10 09:43:31;;;;;;;29.42;14.10;;;;;;;1.49;56.05;102763.31;4990452;28;20026;-87
2023/02/10 09:46:12;;;;;;;25.88;13.88;;;;;;;1.59;54.78;102762.28;4988973;28;20117;-88
2023/02/10 09:49:08;;;;;;;22.45;12.43;;;;;;;1.48;55.60;102761.63;4990418;28;20034;-87
2023/02/10 09:51:34;;;;;;;22.88;11.85;;;;;;;1.45;56.50;102765.09;4991630;28;20033;-87
2023/02/10 09:54:00;;;;;;;21.48;10.98;;;;;;;1.45;56.82;102765.09;4990760;28;20035;-87
2023/02/10 09:56:26;;;;;;;17.20;10.77;;;;;;;1.44;57.12;102771.13;4990419;28;20026;-88
2023/02/10 09:58:55;;;;;;;17.58;10.13;;;;;;;1.41;57.17;102776.34;4992457;28;20043;-88
2023/02/10 10:01:35;;;;;;;19.40;9.60;;;;;;;1.58;55.74;102770.84;4993056;28;20471;-88
2023/02/10 10:04:06;;;;;;;19.23;9.80;;;;;;;1.72;55.63;102762.88;4989227;28;20058;-87
2023/02/10 10:06:38;;;;;;;21.35;10.43;;;;;;;1.78;54.98;102767.88;5000403;28;20050;-87
2023/02/10 10:09:20;;;;;;;16.38;8.85;;;;;;;2.14;53.52;102766.22;5006004;28;20006;-85
2023/02/10 10:11:49;;;;;;;14.38;7.85;;;;;;;2.23;53.36;102769.44;5011891;28;20030;-87
2023/02/10 10:14:21;;;;;;;16.90;8.02;;;;;;;2.23;53.85;102761.72;5006241;28;20015;-87
2023/02/10 10:16:56;;;;;;;16.90;9.60;;;;;;;2.30;52.89;102763.28;5010709;28;20034;-86
2023/02/10 10:19:21;;;;;;;14.73;8.88;;;;;;;2.37;53.06;102761.38;5011409;28;20034;-88
2023/02/10 10:21:53;;;;;;;14.38;8.85;;;;;;;2.47;52.79;102762.00;5006978;28;20046;-87
2023/02/10 10:24:46;;;;;;;17.27;8.18;;;;;;;2.49;51.81;102750.81;5000575;28;20486;-87
2023/02/10 10:27:35;;;;;;;14.10;7.93;;;;;;;2.54;52.38;102753.28;4985108;28;20463;-88
2023/02/10 10:30:53;;;;;;;12.63;6.55;;;;;;;2.43;52.28;102750.09;4984503;28;20113;-88
2023/02/10 10:33:22;;;;;;;;;;;;;;;2.55;50.64;102742.94;4986757;28;20064;-88
2023/02/10 10:35:49;;;;;;;11.45;6.45;;;;;;;2.63;53.07;102732.47;4987174;28;20316;-88
2023/02/10 10:38:24;;;;;;;9.73;6.50;;;;;;;2.71;52.81;102738.25;4988020;28;20031;-88
2023/02/10 10:40:59;;;;;;;12.18;6.25;;;;;;;2.77;52.53;102735.53;4980799;28;20153;-88
2023/02/10 10:43:31;;;;;;;9.68;5.88;;;;;;;2.92;52.25;102721.41;4990653;28;20027;-88
2023/02/10 10:46:06;;;;;;;11.02;6.68;;;;;;;2.99;51.63;102726.34;4990764;28;20513;-87
2023/02/10 10:48:33;;;;;;;12.80;6.55;;;;;;;3.06;51.55;102718.47;4985315;28;20026;-86
2023/02/10 10:51:02;;;;;;;9.95;5.63;;;;;;;3.11;50.89;102711.44;4988327;28;20054;-88
2023/02/10 10:53:30;;;;;;;12.85;7.13;;;;;;;3.17;51.15;102708.72;4989351;28;20113;-88
2023/02/10 10:55:58;;;;;;;13.68;7.05;;;;;;;3.26;51.09;102711.88;4994584;28;20053;-89
2023/02/10 10:58:34;;;;;;;12.68;6.60;;;;;;;3.33;50.66;102709.94;4992902;28;20050;-87
2023/02/10 11:01:01;;;;;;;12.02;6.30;;;;;;;3.49;50.54;102692.31;4989108;28;20069;-88
2023/02/10 11:03:28;;;;;;;34.17;9.60;;;;;;;3.39;50.75;102688.31;4991301;28;20034;-88
2023/02/10 11:06:16;;;;;;;16.95;7.13;;;;;;;3.31;48.69;102685.97;5006732;28;20046;-89
2023/02/10 11:08:54;;;;;;;13.57;7.28;;;;;;;3.34;49.82;102697.03;5012271;28;20462;-90
2023/02/10 11:11:30;;;;;;;9.70;6.47;;;;;;;3.53;49.20;102689.59;5014226;28;20077;-88
2023/02/10 11:13:56;;;;;;;17.40;6.80;;;;;;;3.78;48.78;102687.13;5007308;28;20507;-89
2023/02/10 11:16:21;;;;;;;11.32;6.75;;;;;;;4.06;47.96;102687.13;5013533;28;20060;-88
2023/02/10 11:19:00;;;;;;;9.63;6.20;;;;;;;3.96;47.93;102676.25;5009589;28;20074;-89